createdAt,value
2022-11-10T00:00:57.295Z,1062
2022-11-10T00:02:40.685Z,1060.6
2022-11-10T00:04:24.082Z,1059.3
2022-11-10T00:06:07.497Z,1059.6
2022-11-10T00:07:50.879Z,1058.6
2022-11-10T00:09:34.270Z,1057.7
2022-11-10T00:11:17.693Z,1058.3
2022-11-10T00:13:01.074Z,1057.8
2022-11-10T00:16:27.543Z,1057.1
2022-11-10T00:19:54.343Z,1051.5
2022-11-10T00:21:37.733Z,1047.8
2022-11-10T00:23:21.127Z,1045.6
2022-11-10T00:25:04.525Z,1042.5
2022-11-10T00:26:47.925Z,1040.8
2022-11-10T00:28:31.360Z,1040.6
2022-11-10T00:31:57.837Z,1036.4
2022-11-10T00:33:41.194Z,1034.6
2022-11-10T00:35:24.576Z,1034.3
2022-11-10T00:37:07.980Z,1035.2
2022-11-10T00:38:51.373Z,1034.3
2022-11-10T00:40:34.786Z,1033.3
2022-11-10T00:42:18.152Z,1035.6
2022-11-10T00:44:01.553Z,1034
2022-11-10T00:45:45.271Z,1036
2022-11-10T00:47:28.740Z,1035.1
2022-11-10T00:49:12.049Z,1036.6
2022-11-10T00:50:55.459Z,1037.3
2022-11-10T00:52:38.853Z,1035.2
2022-11-10T00:54:22.287Z,1035
2022-11-10T00:56:05.686Z,1034.1
2022-11-10T00:57:49.045Z,1032.6
2022-11-10T01:01:15.515Z,1030.2
2022-11-10T01:02:58.903Z,1029.6
2022-11-10T01:04:42.295Z,1028.4
2022-11-10T01:06:25.765Z,1030.2
2022-11-10T01:08:09.097Z,1027
2022-11-10T01:09:52.487Z,1026.7
2022-11-10T01:11:35.880Z,1027.5
2022-11-10T01:13:19.321Z,1027
2022-11-10T01:15:02.979Z,1024.3
2022-11-10T01:16:46.393Z,1022.1
2022-11-10T01:18:29.831Z,1022.5
2022-11-10T01:20:13.175Z,1023.6
2022-11-10T01:21:56.576Z,1022.6
2022-11-10T01:23:39.958Z,1020.6
2022-11-10T01:25:23.363Z,1018.8
2022-11-10T01:27:06.758Z,1020.1
2022-11-10T01:30:33.222Z,1023.2
2022-11-10T01:32:16.633Z,1020
2022-11-10T01:34:00.027Z,1016.6
2022-11-10T01:35:43.424Z,1015.6
2022-11-10T01:37:26.804Z,1010
2022-11-10T01:39:10.267Z,1009.3
2022-11-10T01:40:53.604Z,1010.4
2022-11-10T01:42:37.024Z,1013.6
2022-11-10T01:46:03.563Z,1010.3
2022-11-10T01:47:46.862Z,1010.7
2022-11-10T01:49:30.277Z,1013.7
2022-11-10T01:51:13.740Z,1012.6
2022-11-10T01:52:57.113Z,1012.2
2022-11-10T01:54:40.465Z,1013.4
2022-11-10T01:56:23.852Z,1013.3
2022-11-10T01:58:07.259Z,1014.5
2022-11-10T01:59:50.659Z,1015.7
2022-11-10T02:03:17.119Z,1013
2022-11-10T02:05:00.534Z,1011.4
2022-11-10T02:06:43.983Z,1009.7
2022-11-10T02:08:27.319Z,1007.7
2022-11-10T02:10:10.761Z,1009.6
2022-11-10T02:11:54.111Z,1010.2
2022-11-10T02:13:37.537Z,1007.2
2022-11-10T02:15:20.892Z,1005.7
2022-11-10T02:18:47.352Z,1000
2022-11-10T02:20:30.770Z,997.3
2022-11-10T02:22:14.147Z,997.8
2022-11-10T02:23:57.558Z,997.7
2022-11-10T02:25:40.953Z,997.1
2022-11-10T02:27:24.351Z,994.3
2022-11-10T02:29:07.737Z,990
2022-11-10T02:30:51.128Z,986.8
2022-11-10T02:34:17.614Z,989.8
2022-11-10T02:36:01.069Z,990.1
2022-11-10T02:37:44.412Z,987.2
2022-11-10T02:39:27.797Z,981.8
2022-11-10T02:41:11.249Z,980.1
2022-11-10T02:42:54.598Z,978.1
2022-11-10T02:44:37.993Z,980.7
2022-11-10T02:46:21.387Z,985.8
2022-11-10T02:51:30.661Z,983.1
2022-11-10T02:53:14.014Z,980.4
2022-11-10T02:54:57.425Z,976.4
2022-11-10T02:56:40.813Z,976.4
2022-11-10T02:58:24.214Z,974.3
2022-11-10T03:00:07.629Z,972.5
2022-11-10T03:01:51.006Z,971.1
2022-11-10T03:03:34.390Z,969
2022-11-10T03:08:43.665Z,958.6
2022-11-10T03:10:27.030Z,960.1
2022-11-10T03:12:10.424Z,960.7
2022-11-10T03:13:53.823Z,959.1
2022-11-10T03:15:37.229Z,958.6
2022-11-10T03:17:20.620Z,958.2
2022-11-10T03:19:04.030Z,959.4
2022-11-10T03:20:47.409Z,959.6
2022-11-10T03:22:31.108Z,960.5
2022-11-10T03:24:14.514Z,960.7
2022-11-10T03:25:57.911Z,963.7
2022-11-10T03:27:41.302Z,963.2
2022-11-10T03:29:24.701Z,960.7
2022-11-10T03:31:08.085Z,959
2022-11-10T03:32:51.489Z,955.5
2022-11-10T03:34:34.876Z,953.7
2022-11-10T03:38:01.364Z,952.8
2022-11-10T03:39:44.751Z,949.6
2022-11-10T03:41:28.167Z,953.6
2022-11-10T03:43:11.588Z,957
2022-11-10T03:44:54.955Z,956.3
2022-11-10T03:46:38.389Z,957
2022-11-10T03:48:21.741Z,954.8
2022-11-10T03:50:05.126Z,952.5
2022-11-10T03:53:31.615Z,949.7
2022-11-10T03:55:15.014Z,947.1
2022-11-10T03:56:58.390Z,945
2022-11-10T03:58:41.864Z,944.3
2022-11-10T04:00:25.227Z,940.8
2022-11-10T04:02:08.714Z,941.6
2022-11-10T04:03:51.990Z,940.4
2022-11-10T04:05:35.380Z,944.7
2022-11-10T04:10:44.629Z,943
2022-11-10T04:12:28.018Z,945.1
2022-11-10T04:14:11.448Z,945.1
2022-11-10T04:15:54.818Z,942.4
2022-11-10T04:17:38.219Z,939.5
2022-11-10T04:19:21.599Z,940.4
2022-11-10T04:21:04.997Z,939.7
2022-11-10T04:22:48.404Z,939.1
2022-11-10T04:26:14.931Z,938.6
2022-11-10T04:27:58.270Z,935.5
2022-11-10T04:29:41.661Z,932.4
2022-11-10T04:31:25.062Z,932.6
2022-11-10T04:33:08.453Z,931.7
2022-11-10T04:34:51.851Z,931.5
2022-11-10T04:36:35.358Z,933.1
2022-11-10T04:38:18.652Z,933.6
2022-11-10T04:40:02.042Z,931.7
2022-11-10T04:43:28.520Z,931.8
2022-11-10T04:45:11.912Z,933
2022-11-10T04:46:55.347Z,933.2
2022-11-10T04:48:38.705Z,931.5
2022-11-10T04:50:22.112Z,932.4
2022-11-10T04:52:05.547Z,930.6
2022-11-10T04:53:48.928Z,926.5
2022-11-10T04:55:32.292Z,923.2
2022-11-10T04:58:58.767Z,920.5
2022-11-10T05:00:42.164Z,917.8
2022-11-10T05:02:25.554Z,920.8
2022-11-10T05:04:08.976Z,921.6
2022-11-10T05:05:52.418Z,922.6
2022-11-10T05:07:35.753Z,924.7
2022-11-10T05:09:19.141Z,923
2022-11-10T05:11:02.545Z,922.7
2022-11-10T05:14:28.999Z,923.3
2022-11-10T05:16:12.414Z,921.8
2022-11-10T05:17:55.796Z,917.6
2022-11-10T05:19:39.198Z,913.8
2022-11-10T05:21:22.607Z,914.4
2022-11-10T05:23:05.998Z,914.2
2022-11-10T05:24:49.390Z,912
2022-11-10T05:26:32.771Z,911.3
2022-11-10T05:31:42.076Z,904.8
2022-11-10T05:33:25.460Z,903.5
2022-11-10T05:35:08.851Z,898.5
2022-11-10T05:36:52.204Z,895.4
2022-11-10T05:38:35.617Z,896.3
2022-11-10T05:40:19.001Z,895.7
2022-11-10T05:42:02.398Z,895.5
2022-11-10T05:43:45.815Z,892
2022-11-10T05:47:12.263Z,889.8
2022-11-10T05:48:55.695Z,893.1
2022-11-10T05:50:39.125Z,894.7
2022-11-10T05:52:22.499Z,891.2
2022-11-10T05:54:05.864Z,886
2022-11-10T05:55:49.272Z,884.5
2022-11-10T05:57:32.673Z,880.6
2022-11-10T05:59:16.059Z,878.7
2022-11-10T06:00:59.440Z,881
2022-11-10T06:04:25.913Z,887.9
2022-11-10T06:06:09.324Z,887.6
2022-11-10T06:07:52.711Z,885
2022-11-10T06:09:36.135Z,879.1
2022-11-10T06:11:19.501Z,879.8
2022-11-10T06:13:02.922Z,878.7
2022-11-10T06:14:46.289Z,878
2022-11-10T06:16:29.686Z,878.3
2022-11-10T06:21:38.939Z,879.9
2022-11-10T06:23:22.337Z,879.4
2022-11-10T06:25:05.809Z,874.8
2022-11-10T06:26:49.122Z,870.3
2022-11-10T06:28:32.516Z,869.8
2022-11-10T06:30:16.000Z,868.6
2022-11-10T06:31:59.305Z,863.4
2022-11-10T06:33:42.819Z,862.4
2022-11-10T06:37:09.178Z,862.5
2022-11-10T06:38:52.578Z,861
2022-11-10T06:40:36.082Z,858.6
2022-11-10T06:42:19.465Z,854.5
2022-11-10T06:44:02.763Z,852.8
2022-11-10T06:45:46.174Z,852.4
2022-11-10T06:47:29.555Z,853.6
2022-11-10T06:49:13.043Z,854.8
2022-11-10T06:52:39.429Z,862.4
2022-11-10T06:54:22.819Z,867.5
2022-11-10T06:56:06.208Z,875
2022-11-10T06:57:49.607Z,888.7
2022-11-10T06:59:33.016Z,925.1
2022-11-10T07:01:17.497Z,944.6
2022-11-10T07:02:59.796Z,958
2022-11-10T07:04:43.223Z,969.3
2022-11-10T07:08:09.695Z,910.2
2022-11-10T07:09:53.063Z,596.4
2022-11-10T07:11:36.456Z,512.5
2022-11-10T07:13:19.897Z,456
2022-11-10T07:15:03.264Z,460.5
2022-11-10T07:16:46.653Z,465.8
2022-11-10T07:18:30.049Z,471.4
2022-11-10T07:20:13.449Z,484.5
2022-11-10T07:21:56.878Z,507.7
2022-11-10T07:25:23.424Z,538.9
2022-11-10T07:27:06.847Z,542.5
2022-11-10T07:28:50.107Z,543.8
2022-11-10T07:30:33.508Z,551.4
2022-11-10T07:32:16.923Z,560.3
2022-11-10T07:34:00.299Z,563.1
2022-11-10T07:35:43.712Z,565.5
2022-11-10T07:37:27.082Z,566.8
2022-11-10T07:39:10.484Z,571.1
2022-11-10T07:42:36.957Z,586.7
2022-11-10T07:44:20.355Z,594.5
2022-11-10T07:46:03.745Z,596.8
2022-11-10T07:47:47.135Z,601
2022-11-10T07:49:30.556Z,605.7
2022-11-10T07:51:13.928Z,615.6
2022-11-10T07:52:57.336Z,627.2
2022-11-10T07:54:40.749Z,653.6
2022-11-10T07:56:24.120Z,660.6
2022-11-10T07:59:50.600Z,667.3
2022-11-10T08:01:34.001Z,670.2
2022-11-10T08:03:17.545Z,672.2
2022-11-10T08:05:00.852Z,678.4
2022-11-10T08:06:44.178Z,684.7
2022-11-10T08:08:27.635Z,690.5
2022-11-10T08:10:11.068Z,693.3
2022-11-10T08:11:54.371Z,696.1
2022-11-10T08:13:37.754Z,699.7
2022-11-10T08:15:21.476Z,702.8
2022-11-10T08:17:04.889Z,706.8
2022-11-10T08:18:48.307Z,707.8
2022-11-10T08:20:31.738Z,709.4
2022-11-10T08:22:15.112Z,711.6
2022-11-10T08:23:58.608Z,714.5
2022-11-10T08:25:41.988Z,716.1
2022-11-10T08:27:25.284Z,718.3
2022-11-10T08:29:08.636Z,718.3
2022-11-10T08:30:52.411Z,721.3
2022-11-10T08:32:35.750Z,723.5
2022-11-10T08:34:19.180Z,728.5
2022-11-10T08:36:02.601Z,731.5
2022-11-10T08:37:45.974Z,734.2
2022-11-10T08:39:29.327Z,733.5
2022-11-10T08:41:12.723Z,732.6
2022-11-10T08:42:56.160Z,734.6
2022-11-10T08:48:05.408Z,742.7
2022-11-10T08:49:48.825Z,748
2022-11-10T08:51:32.147Z,753.3
2022-11-10T08:53:15.540Z,760.4
2022-11-10T08:54:58.968Z,770
2022-11-10T08:56:42.373Z,774.7
2022-11-10T08:58:25.753Z,781.4
2022-11-10T09:00:09.155Z,797.7
2022-11-10T09:05:18.414Z,768.8
2022-11-10T09:07:01.888Z,760.8
2022-11-10T09:08:45.217Z,755.1
2022-11-10T09:10:28.566Z,753.6
2022-11-10T09:12:12.111Z,750.5
2022-11-10T09:13:55.387Z,748.2
2022-11-10T09:15:38.757Z,746.5
2022-11-10T09:17:22.266Z,745
2022-11-10T09:22:31.381Z,740.7
2022-11-10T09:24:14.780Z,741
2022-11-10T09:25:58.184Z,741.6
2022-11-10T09:27:41.633Z,742.1
2022-11-10T09:29:24.962Z,743.8
2022-11-10T09:31:08.428Z,742.4
2022-11-10T09:32:51.767Z,738.8
2022-11-10T09:34:35.203Z,743.7
2022-11-10T09:38:01.763Z,767.5
2022-11-10T09:39:45.043Z,769.4
2022-11-10T09:41:28.517Z,776
2022-11-10T09:43:11.825Z,785.6
2022-11-10T09:44:55.219Z,794.4
2022-11-10T09:46:38.623Z,796.6
2022-11-10T09:48:22.037Z,798.6
2022-11-10T09:50:05.422Z,804
2022-11-10T09:55:14.648Z,831.2
2022-11-10T09:56:58.107Z,847.4
2022-11-10T09:58:41.435Z,843.8
2022-11-10T10:00:24.833Z,834.8
2022-11-10T10:02:08.316Z,826.4
2022-11-10T10:03:51.638Z,821.3
2022-11-10T10:05:35.057Z,816.6
2022-11-10T10:07:18.455Z,812.3
2022-11-10T10:12:27.670Z,805.8
2022-11-10T10:14:11.055Z,806.8
2022-11-10T10:15:54.466Z,808.7
2022-11-10T10:17:37.841Z,811.5
2022-11-10T10:19:21.239Z,812
2022-11-10T10:21:04.668Z,809.7
2022-11-10T10:22:48.100Z,811.8
2022-11-10T10:24:31.494Z,813.8
2022-11-10T10:27:58.010Z,809.3
2022-11-10T10:29:41.305Z,808.4
2022-11-10T10:31:24.697Z,811.4
2022-11-10T10:33:08.105Z,816.3
2022-11-10T10:34:51.577Z,819
2022-11-10T10:36:34.894Z,820.7
2022-11-10T10:38:18.274Z,822.1
2022-11-10T10:40:01.706Z,824.4
2022-11-10T10:45:10.916Z,829.8
2022-11-10T10:46:54.371Z,832.3
2022-11-10T10:48:37.725Z,834
2022-11-10T10:50:21.115Z,832.3
2022-11-10T10:52:04.517Z,828.8
2022-11-10T10:53:47.945Z,827.8
2022-11-10T10:55:31.391Z,828
2022-11-10T10:57:14.707Z,828.3
2022-11-10T11:02:23.931Z,824.3
2022-11-10T11:04:07.379Z,821.8
2022-11-10T11:05:50.783Z,822.2
2022-11-10T11:07:34.152Z,821.6
2022-11-10T11:09:17.516Z,824
2022-11-10T11:11:01.023Z,826.4
2022-11-10T11:12:44.370Z,826.4
2022-11-10T11:14:27.873Z,828
2022-11-10T11:19:36.947Z,836.9
2022-11-10T11:21:20.396Z,834
2022-11-10T11:23:03.776Z,834
2022-11-10T11:24:47.129Z,854.1
2022-11-10T11:26:30.576Z,893.2
2022-11-10T11:28:13.972Z,906.3
2022-11-10T11:29:57.319Z,902.6
2022-11-10T11:31:40.761Z,893.7
2022-11-10T11:36:49.964Z,889.7
2022-11-10T11:38:33.361Z,887.8
2022-11-10T11:40:16.754Z,887.4
2022-11-10T11:42:00.152Z,888.7
2022-11-10T11:43:43.536Z,888.1
2022-11-10T11:45:26.942Z,887.5
2022-11-10T11:47:10.363Z,889.6
2022-11-10T11:48:53.772Z,887.3
2022-11-10T11:50:37.165Z,886
2022-11-10T11:52:20.848Z,884.6
2022-11-10T11:54:04.244Z,886.4
2022-11-10T11:55:47.660Z,885.8
2022-11-10T11:57:31.020Z,883.8
2022-11-10T11:59:14.406Z,884
2022-11-10T12:00:57.888Z,880.1
2022-11-10T12:02:41.283Z,879.5
2022-11-10T12:04:24.622Z,879.6
2022-11-10T12:09:33.838Z,872.5
2022-11-10T12:11:17.266Z,872.5
2022-11-10T12:13:00.660Z,875.1
2022-11-10T12:14:44.026Z,877.4
2022-11-10T12:16:27.447Z,878.2
2022-11-10T12:18:10.807Z,878.6
2022-11-10T12:19:54.287Z,875.7
2022-11-10T12:21:37.692Z,873.5
2022-11-10T12:25:04.104Z,875.7
2022-11-10T12:26:47.492Z,877.3
2022-11-10T12:28:30.888Z,883.3
2022-11-10T12:30:14.276Z,955.3
2022-11-10T12:31:57.692Z,965.3
2022-11-10T12:33:41.080Z,1002.2
2022-11-10T12:35:24.474Z,1061.6
2022-11-10T12:37:07.928Z,1057
2022-11-10T12:40:34.329Z,1050.1
2022-11-10T12:42:17.716Z,1056
2022-11-10T12:44:01.136Z,1064.7
2022-11-10T12:45:44.526Z,1064.3
2022-11-10T12:47:27.912Z,1052.7
2022-11-10T12:49:11.312Z,1042.2
2022-11-10T12:50:54.850Z,1042.5
2022-11-10T12:52:38.123Z,1040.4
2022-11-10T12:56:04.582Z,1023.2
2022-11-10T12:57:47.976Z,1014.1
2022-11-10T12:59:31.415Z,1003.4
2022-11-10T13:01:14.766Z,1004.2
2022-11-10T13:02:58.164Z,1005.4
2022-11-10T13:04:41.620Z,1009.2
2022-11-10T13:06:24.984Z,1007.2
2022-11-10T13:08:08.439Z,1003.8
2022-11-10T13:09:51.806Z,1002.3
2022-11-10T13:11:35.584Z,1004.3
2022-11-10T13:13:18.846Z,1002.7
2022-11-10T13:15:02.299Z,1000.7
2022-11-10T13:16:45.650Z,1017.7
2022-11-10T13:18:29.037Z,1054.5
2022-11-10T13:20:12.429Z,1063.1
2022-11-10T13:21:55.827Z,1059.4
2022-11-10T13:23:39.371Z,1055
2022-11-10T13:27:05.717Z,1056
2022-11-10T13:28:49.130Z,1051.6
2022-11-10T13:30:32.500Z,1047.6
2022-11-10T13:32:15.988Z,1045.3
2022-11-10T13:33:59.369Z,1044.4
2022-11-10T13:35:42.684Z,1043
2022-11-10T13:37:26.064Z,1043.3
2022-11-10T13:39:09.522Z,1042.6
2022-11-10T13:42:35.994Z,1042.8
2022-11-10T13:44:19.335Z,1040.7
2022-11-10T13:46:02.883Z,1039
2022-11-10T13:47:46.151Z,1037.8
2022-11-10T13:49:29.539Z,1039.2
2022-11-10T13:51:12.998Z,1040.5
2022-11-10T13:52:56.316Z,1043.3
2022-11-10T13:54:39.706Z,1045.3
2022-11-10T13:59:48.961Z,1046.3
2022-11-10T14:01:32.382Z,1048.2
2022-11-10T14:03:15.809Z,1049
2022-11-10T14:04:59.170Z,1051.8
2022-11-10T14:06:42.582Z,1064
2022-11-10T14:08:25.942Z,1075.5
2022-11-10T14:10:09.340Z,1077.4
2022-11-10T14:11:52.723Z,1083.5
2022-11-10T14:15:19.216Z,1102.8
2022-11-10T14:17:02.664Z,1101.5
2022-11-10T14:18:45.996Z,1095.3
2022-11-10T14:20:29.395Z,1092.8
2022-11-10T14:22:12.811Z,1088.5
2022-11-10T14:23:56.188Z,1085
2022-11-10T14:25:39.573Z,1083.3
2022-11-10T14:27:22.988Z,1078.8
2022-11-10T14:32:32.219Z,1068.8
2022-11-10T14:34:15.616Z,1064.2
2022-11-10T14:35:59.016Z,1061.8
2022-11-10T14:37:42.405Z,1059.8
2022-11-10T14:39:25.801Z,1058.4
2022-11-10T14:41:09.223Z,1053.1
2022-11-10T14:42:52.629Z,1051.6
2022-11-10T14:44:36.127Z,1048.7
2022-11-10T14:48:02.466Z,1048
2022-11-10T14:49:45.862Z,1050.1
2022-11-10T14:51:29.328Z,1048.2
2022-11-10T14:53:12.762Z,1044.3
2022-11-10T14:54:56.053Z,1043.5
2022-11-10T14:56:39.530Z,1043.6
2022-11-10T14:58:22.843Z,1042.3
2022-11-10T15:00:06.253Z,1039.7
2022-11-10T15:01:49.641Z,1036.8
2022-11-10T15:03:33.433Z,1039.7
2022-11-10T15:05:16.730Z,1040.6
2022-11-10T15:07:00.139Z,1041
2022-11-10T15:08:43.533Z,1039.4
2022-11-10T15:10:26.973Z,1038.3
2022-11-10T15:12:10.311Z,1034
2022-11-10T15:13:53.714Z,1031.6
2022-11-10T15:15:37.138Z,1033.4
2022-11-10T15:20:46.347Z,1033
2022-11-10T15:22:29.740Z,1034.3
2022-11-10T15:24:13.242Z,1036.2
2022-11-10T15:25:56.545Z,1046.8
2022-11-10T15:27:39.935Z,1058.3
2022-11-10T15:29:23.366Z,1070.1
2022-11-10T15:31:06.730Z,1092.7
2022-11-10T15:32:50.188Z,1113.2
2022-11-10T15:37:59.424Z,1109.2
2022-11-10T15:39:42.764Z,1107
2022-11-10T15:41:26.161Z,1113.3
2022-11-10T15:43:09.563Z,1114.3
2022-11-10T15:44:52.947Z,1107
2022-11-10T15:46:36.338Z,1106.7
2022-11-10T15:48:19.753Z,1113.3
2022-11-10T15:50:03.142Z,1114.7
2022-11-10T15:55:12.391Z,1154.9
2022-11-10T15:56:55.777Z,1177.1
2022-11-10T15:58:39.183Z,1207.1
2022-11-10T16:00:22.605Z,1224.1
2022-11-10T16:02:06.075Z,1223
2022-11-10T16:03:49.360Z,1215.4
2022-11-10T16:05:32.814Z,1216.6
2022-11-10T16:07:16.208Z,1222.8
2022-11-10T16:12:25.525Z,1242.4
2022-11-10T16:14:08.888Z,1237.2
2022-11-10T16:15:52.199Z,1240.3
2022-11-10T16:17:35.583Z,1241.3
2022-11-10T16:19:18.989Z,1244.7
2022-11-10T16:21:02.383Z,1255.8
2022-11-10T16:22:45.779Z,1265.7
2022-11-10T16:24:29.171Z,1283.5
2022-11-10T16:29:38.545Z,1306.6
2022-11-10T16:31:21.810Z,1308.8
2022-11-10T16:33:05.237Z,1315.4
2022-11-10T16:34:48.664Z,1325.8
2022-11-10T16:36:32.062Z,1342.7
2022-11-10T16:38:15.418Z,1349.4
2022-11-10T16:39:58.910Z,1353.5
2022-11-10T16:41:42.281Z,1351.8
2022-11-10T16:46:51.451Z,1366.7
2022-11-10T16:48:34.834Z,1376.4
2022-11-10T16:50:18.228Z,1384.8
2022-11-10T16:52:01.642Z,1385.3
2022-11-10T16:53:45.122Z,1379.5
2022-11-10T16:55:28.423Z,1373.5
2022-11-10T16:57:11.864Z,1362.7
2022-11-10T16:58:55.209Z,1351.6
2022-11-10T17:02:21.687Z,1334.8
2022-11-10T17:04:05.085Z,1329.6
2022-11-10T17:05:48.513Z,1329.6
2022-11-10T17:07:31.865Z,1328.7
2022-11-10T17:09:15.265Z,1330
2022-11-10T17:10:58.649Z,1328.8
2022-11-10T17:12:42.046Z,1321.8
2022-11-10T17:14:25.446Z,1316.6
2022-11-10T17:19:34.698Z,1297.2
2022-11-10T17:21:18.091Z,1291.2
2022-11-10T17:23:01.476Z,1289.3
2022-11-10T17:24:44.888Z,1286.2
2022-11-10T17:26:28.369Z,1285.1
2022-11-10T17:28:11.685Z,1289
2022-11-10T17:29:55.172Z,1290.4
2022-11-10T17:31:38.462Z,1284.7
2022-11-10T17:36:47.704Z,1286.2
2022-11-10T17:38:31.131Z,1287.8
2022-11-10T17:40:14.502Z,1286.3
2022-11-10T17:41:57.918Z,1287.8
2022-11-10T17:43:41.354Z,1285.2
2022-11-10T17:45:24.686Z,1285.7
2022-11-10T17:47:08.133Z,1295.6
2022-11-10T17:48:51.488Z,1304.4
2022-11-10T17:50:34.882Z,1308.3
2022-11-10T17:54:01.407Z,1298.8
2022-11-10T17:55:44.738Z,1294.4
2022-11-10T17:57:28.146Z,1290.2
2022-11-10T17:59:11.632Z,1288.1
2022-11-10T18:00:55.016Z,1289.5
2022-11-10T18:02:38.323Z,1299.5
2022-11-10T18:04:21.723Z,1311.1
2022-11-10T18:06:05.168Z,1321.4
2022-11-10T18:09:31.591Z,1337.2
2022-11-10T18:11:14.995Z,1339.4
2022-11-10T18:12:58.392Z,1335
2022-11-10T18:14:41.777Z,1329.5
2022-11-10T18:16:25.238Z,1329
2022-11-10T18:18:08.680Z,1331.1
2022-11-10T18:21:35.369Z,1330.2
2022-11-10T18:26:44.645Z,1297.6
2022-11-10T18:28:28.072Z,1292.8
2022-11-10T18:30:11.393Z,1291
2022-11-10T18:31:54.842Z,1287.4
2022-11-10T18:33:38.251Z,1285.7
2022-11-10T18:35:21.593Z,1283.6
2022-11-10T18:37:05.024Z,1279
2022-11-10T18:38:48.477Z,1274.8
2022-11-10T18:42:14.850Z,1274
2022-11-10T18:43:58.252Z,1278
2022-11-10T18:45:41.657Z,1281.1
2022-11-10T18:47:25.115Z,1279.3
2022-11-10T18:49:08.443Z,1274.4
2022-11-10T18:50:51.830Z,1273.6
2022-11-10T18:52:35.241Z,1277.8
2022-11-10T18:54:18.625Z,1278.7
2022-11-10T18:59:27.868Z,1336.6
2022-11-10T19:01:11.270Z,1334.1
2022-11-10T19:02:54.683Z,1329.1
2022-11-10T19:04:38.070Z,1320.4
2022-11-10T19:06:21.454Z,1311.8
2022-11-10T19:08:04.845Z,1306.7
2022-11-10T19:09:48.231Z,1302.5
2022-11-10T19:11:31.639Z,1300.4
2022-11-10T19:14:58.112Z,1298.4
2022-11-10T19:16:41.571Z,1294.6
2022-11-10T19:18:24.919Z,1293.3
2022-11-10T19:20:08.310Z,1292.2
2022-11-10T19:21:51.697Z,1292.3
2022-11-10T19:23:35.088Z,1291.7
2022-11-10T19:25:18.508Z,1290.8
2022-11-10T19:27:01.894Z,1287.4
2022-11-10T19:32:11.134Z,1275.4
2022-11-10T19:33:54.656Z,1272.8
2022-11-10T19:35:37.986Z,1267.3
2022-11-10T19:37:21.308Z,1264.7
2022-11-10T19:39:04.786Z,1263
2022-11-10T19:40:48.177Z,1258.7
2022-11-10T19:42:31.543Z,1256.3
2022-11-10T19:44:14.952Z,1256.6
2022-11-10T19:47:41.435Z,1254.5
2022-11-10T19:49:24.772Z,1255.2
2022-11-10T19:51:08.181Z,1254.1
2022-11-10T19:52:51.580Z,1255.7
2022-11-10T19:54:34.956Z,1259.2
2022-11-10T19:56:18.418Z,1258.8
2022-11-10T19:58:01.746Z,1260.3
2022-11-10T19:59:45.141Z,1262
2022-11-10T20:04:54.388Z,1262.7
2022-11-10T20:06:37.790Z,1258.6
2022-11-10T20:08:21.172Z,1255.8
2022-11-10T20:10:04.573Z,1248.6
2022-11-10T20:11:47.963Z,1241.7
2022-11-10T20:13:31.372Z,1239.2
2022-11-10T20:15:14.751Z,1240.7
2022-11-10T20:16:58.194Z,1239.3
2022-11-10T20:22:07.397Z,1230.2
2022-11-10T20:23:50.803Z,1224.5
2022-11-10T20:25:34.244Z,1222.3
2022-11-10T20:27:17.583Z,1217.4
2022-11-10T20:29:00.992Z,1215
2022-11-10T20:30:44.396Z,1212
2022-11-10T20:32:27.882Z,1209.1
2022-11-10T20:34:11.205Z,1205.5
2022-11-10T20:37:37.736Z,1197.9
2022-11-10T20:39:21.081Z,1196
2022-11-10T20:41:04.433Z,1192.3
2022-11-10T20:42:47.853Z,1189.5
2022-11-10T20:44:31.234Z,1188.6
2022-11-10T20:46:14.623Z,1180.7
2022-11-10T20:47:58.033Z,1173.2
2022-11-10T20:49:41.437Z,1167.7
2022-11-10T20:54:50.670Z,1157.6
2022-11-10T20:56:34.122Z,1147.8
2022-11-10T20:58:17.450Z,1140.2
2022-11-10T21:00:00.858Z,1139.6
2022-11-10T21:01:44.254Z,1140.4
2022-11-10T21:03:27.680Z,1140.5
2022-11-10T21:05:11.176Z,1138.6
2022-11-10T21:06:54.437Z,1136.4
2022-11-10T21:12:03.697Z,1130.1
2022-11-10T21:13:47.087Z,1125
2022-11-10T21:15:30.474Z,1117.3
2022-11-10T21:17:13.893Z,1112.7
2022-11-10T21:18:57.302Z,1109.1
2022-11-10T21:20:40.682Z,1105.6
2022-11-10T21:22:24.056Z,1102.8
2022-11-10T21:24:07.468Z,1099.8
2022-11-10T21:25:50.844Z,1098.1
2022-11-10T21:27:34.560Z,1096.2
2022-11-10T21:29:17.962Z,1096.4
2022-11-10T21:31:01.341Z,1094.8
2022-11-10T21:32:44.727Z,1097.3
2022-11-10T21:34:28.134Z,1098.5
2022-11-10T21:36:11.619Z,1103.8
2022-11-10T21:37:55.053Z,961.6
2022-11-10T21:39:38.322Z,616.8
2022-11-10T21:41:21.727Z,518.4
2022-11-10T21:44:48.199Z,527.6
2022-11-10T21:46:31.631Z,537.1
2022-11-10T21:48:14.990Z,548.4
2022-11-10T21:49:58.374Z,556.5
2022-11-10T21:51:41.817Z,564.2
2022-11-10T21:53:25.179Z,569.7
2022-11-10T21:55:08.586Z,575.6
2022-11-10T21:56:51.971Z,579
2022-11-10T21:58:35.380Z,584
2022-11-10T22:03:44.611Z,595.1
2022-11-10T22:05:28.010Z,599.8
2022-11-10T22:07:11.427Z,605.1
2022-11-10T22:08:54.789Z,609.3
2022-11-10T22:10:38.201Z,612.4
2022-11-10T22:12:21.591Z,617.4
2022-11-10T22:14:04.990Z,625.1
2022-11-10T22:15:48.370Z,627.6
2022-11-10T22:17:31.778Z,631.8
2022-11-10T22:19:15.476Z,635
2022-11-10T22:20:58.903Z,640.8
2022-11-10T22:22:42.265Z,643.4
2022-11-10T22:24:25.689Z,644.2
2022-11-10T22:26:09.060Z,646.8
2022-11-10T22:27:52.469Z,650.7
2022-11-10T22:29:35.867Z,652.6
2022-11-10T22:31:19.264Z,656.6
2022-11-10T22:33:02.636Z,662.5
2022-11-10T22:36:29.136Z,666.4
2022-11-10T22:38:12.526Z,667.7
2022-11-10T22:39:55.924Z,670.5
2022-11-10T22:41:39.302Z,676.2
2022-11-10T22:43:22.727Z,683.3
2022-11-10T22:45:06.114Z,693
2022-11-10T22:46:49.591Z,701.4
2022-11-10T22:48:32.896Z,701.4
2022-11-10T22:51:59.368Z,709.5
2022-11-10T22:53:42.757Z,714.6
2022-11-10T22:55:26.167Z,719.8
2022-11-10T22:57:09.547Z,722.2
2022-11-10T22:58:52.944Z,724.7
2022-11-10T23:00:36.352Z,726.6
2022-11-10T23:02:19.735Z,730.8
2022-11-10T23:04:03.180Z,733.1
2022-11-10T23:05:46.547Z,731.6
2022-11-10T23:09:13.010Z,727.9
2022-11-10T23:10:56.400Z,728.6
2022-11-10T23:12:39.795Z,729.7
2022-11-10T23:14:23.190Z,732.4
2022-11-10T23:16:06.592Z,735.2
2022-11-10T23:17:49.979Z,737.8
2022-11-10T23:19:33.378Z,742
2022-11-10T23:21:16.769Z,741.3
2022-11-10T23:26:26.022Z,754.7
2022-11-10T23:28:09.492Z,758.3
2022-11-10T23:29:52.870Z,759.4
2022-11-10T23:31:36.228Z,759
2022-11-10T23:33:19.618Z,759.3
2022-11-10T23:35:03.006Z,762
2022-11-10T23:36:46.406Z,762.4
2022-11-10T23:38:29.887Z,764.6
2022-11-10T23:43:39.053Z,771.8
2022-11-10T23:45:22.417Z,776.4
2022-11-10T23:47:05.840Z,779.5
2022-11-10T23:48:49.229Z,783.4
2022-11-10T23:50:32.627Z,791.6
2022-11-10T23:52:16.021Z,795.6
2022-11-10T23:53:59.509Z,798.4
2022-11-10T23:55:42.797Z,801.6
2022-11-10T23:57:26.237Z,802.1
